• Join FlightAware (Why Join?)
  • Login
  • US Flag 
01:39AM EST


 

Airport Tracker/Info


-or-


 

Live Flight TrackerFlight Track Log ✈ N100WX ✈ 08-May-2013 ✈ KBED - KOMA

Flight Track Log - Related Links

Times and Time Zones

All times are in EDT time to prevent confusion due to time zone crossing. See the N100WX flight status page for this flight to view local times or setup timezone preferences in your user account.

Time Position Orientation Groundspeed Altitude Reporting Facility
EDT Latitude Longitude Course Direction KTS MPH feet Rate Location/Type
06:15PM 42.4833 -71.2667 36° Northeast 154 177 1,000  Level KA90
06:17PM 42.5333 -71.2167 36° Northeast 214 246 2,500 2,095 Climbing KA90
06:18PM 42.5833 -71.1667 36° Northeast 217 250 5,400 2,583 Climbing KA90
06:19PM 42.6578 -71.1442 13° North 211 243 8,700 2,286 Climbing Boston Center
06:20PM 42.7147 -71.2053 322° Northwest 201 231 11,000 2,150 Climbing Boston Center
06:21PM 42.7550 -71.2639 313° West 227 261 13,000 2,200 Climbing Boston Center
06:22PM 42.7725 -71.3625 284° West 239 275 15,400 2,100 Climbing Boston Center
06:23PM 42.7836 -71.4500 280° West 250 288 17,200 1,700 Climbing Boston Center
06:24PM 42.7928 -71.5375 278° West 255 293 18,800 1,850 Climbing Boston Center
06:25PM 42.8019 -71.6392 277° West 260 299 20,900 1,900 Climbing Boston Center
06:26PM 42.8256 -71.7381 288° West 265 305 22,600 1,550 Climbing Boston Center
06:27PM 42.8489 -71.8397 287° West 270 311 24,000 1,400 Climbing Boston Center
06:28PM 42.8767 -71.9442 290° West 285 328 25,400 1,350 Climbing Boston Center
06:29PM 42.9061 -72.0489 291° West 290 334 26,700 1,250 Climbing Boston Center
06:30PM 42.9397 -72.1564 293° West 295 339 27,900 1,300 Climbing Boston Center
06:31PM 42.9506 -72.2700 277° West 295 339 29,300 1,350 Climbing Boston Center
06:32PM 42.9653 -72.3806 280° West 300 345 30,600 1,350 Climbing Boston Center
06:33PM 42.9714 -72.4911 274° West 300 345 32,000 1,350 Climbing Boston Center
06:34PM 42.9817 -72.5989 277° West 289 333 33,300 1,300 Climbing Boston Center
06:35PM 42.9814 -72.7211 270° West 289 333 34,600 1,100 Climbing Boston Center
06:36PM 42.9894 -72.8289 276° West 289 333 35,500 850 Climbing Boston Center
06:37PM 42.9953 -72.9453 274° West 294 338 36,300 700 Climbing Boston Center
06:38PM 43.0053 -73.0506 277° West 307 353 36,900 650 Climbing Boston Center
06:39PM 43.0108 -73.1614 274° West 307 353 37,600 600 Climbing Boston Center
06:40PM 43.0206 -73.2778 277° West 307 353 38,100 650 Climbing Boston Center
06:41PM 43.0217 -73.3914 271° West 307 353 38,900 600 Climbing Boston Center
06:42PM 43.0289 -73.5053 275° West 307 353 39,300 350 Climbing Boston Center
06:43PM 43.0361 -73.6161 275° West 307 353 39,600 250 Climbing Boston Center
06:44PM 43.0411 -73.7328 273° West 307 353 39,800 200 Climbing Boston Center
06:45PM 43.0503 -73.8522 276° West 312 359 40,000 100 Climbing Boston Center
06:46PM 43.0569 -73.9772 274° West 322 371 40,000  Level Boston Center
06:47PM 43.0656 -74.1056 275° West 334 384 40,000  Level Boston Center
06:48PM 43.0739 -74.2392 275° West 346 398 40,000  Level Boston Center
06:49PM 43.0800 -74.3758 274° West 352 405 40,000  Level Boston Center
06:50PM 43.0861 -74.5069 274° West 352 405 40,000  Level Boston Center
06:51PM 43.0919 -74.6436 273° West 352 405 40,000  Level Boston Center
06:52PM 43.0994 -74.7803 274° West 352 405 40,000  Level Boston Center
06:53PM 43.1050 -74.9142 273° West 357 411 40,000  Level Boston Center
06:54PM 43.1125 -75.0511 274° West 357 411 40,000  Level Boston Center
06:55PM 43.1189 -75.2136 273° West 357 411 40,000  Level Boston Center
06:56PM 43.1239 -75.3503 273° West 362 417 40,000  Level Boston Center
06:57PM 43.1325 -75.4986 275° West 367 422 40,000  Level Boston Center
06:58PM 43.1394 -75.6328 274° West 367 422 40,000  Level Boston Center
06:59PM 43.1439 -75.7697 273° West 367 422 40,000  Level Boston Center
07:00PM 43.1500 -75.9067 274° West 367 422 40,000  Level Boston Center
07:03PM 43.1597 -76.3392 272° West 359 413 40,000  Level Cleveland Center
07:04PM 43.1564 -76.4733 268° West 359 413 40,000  Level Cleveland Center
07:05PM 43.1569 -76.6128 270° West 364 419 40,000  Level Cleveland Center
07:06PM 43.1558 -76.7636 269° West 364 419 40,000  Level Cleveland Center
07:07PM 43.1539 -76.8975 269° West 364 419 40,000  Level Cleveland Center
07:08PM 43.1519 -77.0344 269° West 364 419 40,000  Level Cleveland Center
07:09PM 43.1497 -77.1711 269° West 364 419 40,000  Level Cleveland Center
07:10PM 43.1475 -77.3078 269° West 364 419 40,000  Level Cleveland Center
07:11PM 43.1469 -77.4417 270° West 364 419 40,000  Level Cleveland Center
07:12PM 43.1444 -77.5756 269° West 364 419 40,000  Level Cleveland Center
07:13PM 43.1394 -77.7094 267° West 364 419 40,000  Level Cleveland Center
07:14PM 43.1386 -77.8433 270° West 364 419 40,000  Level Cleveland Center
07:15PM 43.1353 -77.9744 268° West 359 413 40,000  Level Cleveland Center
07:16PM 43.1319 -78.1111 268° West 359 413 40,000  Level Cleveland Center
07:17PM 43.1283 -78.2419 268° West 359 413 40,000  Level Cleveland Center
07:18PM 43.1247 -78.3731 268° West 353 406 40,000  Level Cleveland Center
07:19PM 43.1231 -78.5039 269° West 348 400 40,000  Level Cleveland Center
07:20PM 43.1192 -78.6350 268° West 348 400 40,000  Level Cleveland Center
07:21PM 43.1150 -78.7658 268° West 348 400 40,000  Level Cleveland Center
07:22PM 43.1125 -78.8853 268° West 353 406 40,000  Level Cleveland Center
07:23PM 43.1000 -78.9500 255° West 340 391 40,000  Level Toronto Center
07:24PM 43.1000 -79.0833 270° West 340 391 40,000  Level Toronto Center
07:25PM 43.1000 -79.2167 270° West 340 391 40,000  Level Toronto Center
07:26PM 43.0833 -79.3333 259° West 340 391 40,000  Level Toronto Center
07:27PM 43.0833 -79.4667 270° West 340 391 40,000 -300 Level Toronto Center
07:28PM 43.0833 -79.5833 270° West 340 391 39,400 -800 Descending Toronto Center
07:29PM 43.0667 -79.7167 260° West 330 380 38,400 -700 Descending Toronto Center
07:30PM 43.0667 -79.8667 270° West 340 391 38,000 -200 Descending Toronto Center
07:31PM 43.0667 -80.0000 270° West 340 391 38,000  Level Toronto Center
07:32PM 43.0667 -80.1167 270° West 350 403 38,000  Level Toronto Center
07:33PM 43.0500 -80.2500 260° West 350 403 38,000  Level Toronto Center
07:34PM 43.0500 -80.3833 270° West 350 403 38,000  Level Toronto Center
07:35PM 43.0500 -80.5167 270° West 360 414 38,000  Level Toronto Center
07:36PM 43.0333 -80.6667 261° West 360 414 38,000  Level Toronto Center
07:37PM 43.0333 -80.8000 270° West 360 414 38,000  Level Toronto Center
07:38PM 43.0167 -80.9333 260° West 360 414 38,000  Level Toronto Center
07:39PM 43.0000 -81.0667 260° West 360 414 38,000  Level Toronto Center
07:40PM 43.0000 -81.2000 270° West 360 414 38,000  Level Toronto Center
07:41PM 43.0000 -81.3500 270° West 360 414 38,000  Level Toronto Center
07:42PM 42.9833 -81.4833 260° West 360 414 38,000  Level Toronto Center
07:43PM 42.9833 -81.6000 270° West 360 414 38,000  Level Toronto Center
07:44PM 42.9833 -81.7500 270° West 360 414 38,000  Level Toronto Center
07:45PM 42.9833 -81.8667 270° West 360 414 38,000  Level Toronto Center
07:46PM 42.9500 -82.0000 251° West 360 414 38,000  Level Toronto Center
07:47PM 42.9500 -82.1333 270° West 360 414 38,000  Level Toronto Center
07:48PM 42.9500 -82.2833 270° West 360 414 38,000  Level Toronto Center
07:49PM 42.9333 -82.4167 260° West 360 414 38,000  Level Toronto Center
07:50PM 42.9333 -82.5500 270° West 360 414 38,000  Level Toronto Center
07:51PM 42.9328 -82.6986 270° West 365 420 38,000  Level Cleveland Center
07:52PM 42.9239 -82.8289 265° West 365 420 38,000  Level Cleveland Center
07:53PM 42.9150 -82.9644 265° West 365 420 38,000  Level Cleveland Center
07:54PM 42.9058 -83.0975 265° West 365 420 38,000  Level Cleveland Center
07:55PM 42.8986 -83.2331 266° West 365 420 38,000  Level Cleveland Center
07:56PM 42.8872 -83.3631 263° West 365 420 38,000  Level Cleveland Center
07:57PM 42.8800 -83.4931 266° West 360 414 38,000  Level Cleveland Center
07:58PM 42.8703 -83.6231 264° West 360 414 38,000  Level Cleveland Center
07:59PM 42.8606 -83.7528 264° West 350 403 38,000  Level Cleveland Center
08:00PM 42.8508 -83.8769 264° West 345 397 38,000  Level Cleveland Center
08:01PM 42.8408 -84.0094 264° West 345 397 38,000  Level Cleveland Center
08:03PM 42.8000 -84.2500 257° West 340 391 38,000  Level Toronto Center
08:04PM 42.8000 -84.3833 270° West 340 391 38,000  Level Toronto Center
08:05PM 42.8000 -84.5000 270° West 340 391 38,000  Level Toronto Center
08:06PM 42.7667 -84.6333 251° West 340 391 38,000  Level Toronto Center
08:07PM 42.7667 -84.7667 270° West 330 380 38,000  Level Toronto Center
08:07PM 42.7808 -84.7881 312° West 332 382 38,000  Level Chicago Center
08:08PM 42.7708 -84.9125 264° West 331 381 38,000  Level Chicago Center
08:09PM 42.7603 -85.0372 263° West 332 382 38,000  Level Chicago Center
08:10PM 42.7500 -85.1597 264° West 328 377 38,000  Level Chicago Center
08:11PM 42.7392 -85.2844 263° West 330 380 38,000  Level Chicago Center
08:12PM 42.7242 -85.4303 262° West 326 375 38,000  Level Chicago Center
08:14PM 42.7083 -85.5511 260° West 325 374 38,000  Level Chicago Center
08:15PM 42.6936 -85.6747 261° West 329 379 38,000  Level Chicago Center
08:16PM 42.6797 -85.7978 261° West 328 377 38,000  Level Chicago Center
08:17PM 42.6639 -85.9203 260° West 328 377 38,000  Level Chicago Center
08:18PM 42.6486 -86.0433 260° West 329 379 38,000  Level Chicago Center
08:19PM 42.6339 -86.1667 261° West 329 379 38,000  Level Chicago Center
08:20PM 42.6181 -86.2931 260° West 336 387 38,000  Level Chicago Center
08:21PM 42.5983 -86.4456 260° West 341 392 38,000  Level Chicago Center
08:22PM 42.5814 -86.5756 260° West 348 400 38,000  Level Chicago Center
08:23PM 42.5664 -86.7069 261° West 349 402 38,000  Level Chicago Center
08:24PM 42.5483 -86.8375 259° West 353 406 38,000  Level Chicago Center
08:25PM 42.5322 -86.9678 261° West 354 407 38,000  Level Chicago Center
08:26PM 42.5136 -87.0942 259° West 348 400 38,000  Level Chicago Center
08:27PM 42.4936 -87.2472 260° West 345 397 38,000  Level Chicago Center
08:28PM 42.4758 -87.3756 259° West 347 399 38,000  Level Chicago Center
08:29PM 42.4592 -87.5008 260° West 343 395 38,000  Level Chicago Center
08:30PM 42.4422 -87.6272 260° West 343 395 38,000  Level Chicago Center
08:31PM 42.4214 -87.7719 259° West 339 390 38,000  Level Chicago Center
08:32PM 42.4036 -87.8981 259° West 340 391 38,000  Level Chicago Center
08:33PM 42.3850 -88.0233 259° West 338 389 38,000  Level Chicago Center
08:34PM 42.3681 -88.1492 260° West 337 388 38,000  Level Chicago Center
08:35PM 42.3506 -88.2719 259° West 334 384 38,000  Level Chicago Center
08:36PM 42.3325 -88.3958 259° West 334 384 38,000  Level Chicago Center
08:37PM 42.3114 -88.5386 259° West 333 383 38,000  Level Chicago Center
08:38PM 42.2931 -88.6611 259° West 336 387 38,000  Level Chicago Center
08:39PM 42.2750 -88.7861 259° West 341 392 38,000  Level Chicago Center
08:40PM 42.2558 -88.9142 259° West 337 388 38,000  Level Chicago Center
08:41PM 42.2369 -89.0392 259° West 340 391 38,000  Level Chicago Center
08:42PM 42.2175 -89.1658 258° West 342 394 38,000  Level Chicago Center
08:43PM 42.1992 -89.2939 259° West 346 398 38,000  Level Chicago Center
08:44PM 42.1756 -89.4422 258° West 346 398 38,000  Level Chicago Center
08:45PM 42.1558 -89.5717 258° West 352 405 38,000  Level Chicago Center
08:47PM 42.1367 -89.6986 259° West 349 402 38,000  Level Chicago Center
08:48PM 42.1164 -89.8247 258° West 344 396 38,000  Level Chicago Center
08:49PM 42.0989 -89.9394 258° West 341 392 38,000  Level Chicago Center
08:50PM 42.0744 -90.0850 257° West 338 389 38,000  Level Chicago Center
08:51PM 42.0558 -90.2017 258° West 325 374 38,000  Level Chicago Center
08:52PM 42.0392 -90.3150 259° West 316 364 38,000  Level Chicago Center
08:53PM 42.0189 -90.4306 257° West 318 366 38,000  Level Chicago Center
08:54PM 42.0000 -90.5422 257° West 311 358 38,000  Level Chicago Center
08:55PM 41.9772 -90.6786 257° West 315 362 38,000  Level Chicago Center
08:56PM 41.9572 -90.7878 256° West 307 353 38,000  Level Chicago Center
08:57PM 41.9403 -90.8972 258° West 302 348 38,000  Level Chicago Center
08:58PM 41.9217 -91.0067 257° West 303 349 38,000  Level Chicago Center
08:59PM 41.9039 -91.1153 258° West 301 346 38,000  Level Chicago Center
09:00PM 41.8939 -91.2494 264° West 303 349 38,000  Level Chicago Center
09:01PM 41.8856 -91.3600 264° West 301 346 38,000  Level Chicago Center
09:02PM 41.8761 -91.4717 264° West 303 349 38,000  Level Chicago Center
09:03PM 41.8664 -91.5839 263° West 303 349 38,000  Level Chicago Center
09:04PM 41.8572 -91.6953 264° West 303 349 38,000  Level Chicago Center
09:05PM 41.8472 -91.8086 263° West 306 352 38,000  Level Chicago Center
09:06PM 41.8367 -91.9422 264° West 304 350 38,000  Level Chicago Center
09:07PM 41.8253 -92.0528 262° West 302 348 38,000  Level Chicago Center
09:08PM 41.8164 -92.1686 264° West 309 356 38,000 -484 Level Chicago Center
09:09PM 41.8053 -92.2839 263° West 315 362 37,000 -968 Descending Chicago Center
09:10PM 41.7947 -92.4050 263° West 325 374 36,000 -1,016 Descending Chicago Center
09:11PM 41.7811 -92.5508 263° West 329 379 34,900 -968 Descending Chicago Center
09:12PM 41.7703 -92.6728 263° West 331 381 34,000 -535 Descending Chicago Center
09:13PM 41.7633 -92.7436 263° West 328 377 34,000  Level Minneapolis Center
09:14PM 41.7519 -92.8653 263° West 319 367 34,000  Level Minneapolis Center
09:15PM 41.7414 -92.9731 263° West 305 351 34,000  Level Minneapolis Center
09:16PM 41.7292 -93.0992 263° West 292 336 34,000  Level Minneapolis Center
09:17PM 41.7164 -93.2253 262° West 289 333 34,000  Level Minneapolis Center
09:19PM 41.7069 -93.3297 263° West 286 329 34,000  Level Minneapolis Center
09:20PM 41.6933 -93.4542 262° West 285 328 34,000  Level Minneapolis Center
09:21PM 41.6833 -93.5581 263° West 285 328 34,000 -242 Level Minneapolis Center
09:22PM 41.6717 -93.6836 263° West 285 328 33,500 -581 Descending Minneapolis Center
09:23PM 41.6569 -93.7950 260° West 299 344 32,800 -726 Descending Minneapolis Center
09:24PM 41.6306 -93.9056 252° West 311 358 32,000 -823 Descending Minneapolis Center
09:25PM 41.6025 -94.0192 252° West 321 369 31,100 -774 Descending Minneapolis Center
09:26PM 41.5797 -94.1106 252° West 325 374 30,400 -780 Descending Minneapolis Center
09:27PM 41.5478 -94.2358 251° West 333 383 29,500 -968 Descending Minneapolis Center
09:28PM 41.5142 -94.3739 252° West 328 377 28,400 -1,056 Descending Minneapolis Center
09:29PM 41.4806 -94.5061 251° West 314 361 27,300 -968 Descending Minneapolis Center
09:30PM 41.4542 -94.6128 252° West 306 352 26,400 -878 Descending Minneapolis Center
09:31PM 41.4281 -94.7181 252° West 299 344 25,500 -934 Descending Minneapolis Center
09:32PM 41.4131 -94.8381 261° West 293 337 24,500 -913 Descending Minneapolis Center
09:32PM 41.4019 -94.8839 252° West 291 335 24,100 -857 Descending Minneapolis Center
09:33PM 41.3778 -94.9222 230° Southwest 290 334 23,600 -1,300 Descending Minneapolis Center
09:33PM 41.3739 -94.9850 265° West 289 333 22,800 -1,742 Descending Minneapolis Center
09:34PM 41.3508 -95.0231 231° Southwest 290 334 21,800 -2,459 Descending Minneapolis Center
09:35PM 41.3458 -95.0886 264° West 281 323 20,300 -2,323 Descending Minneapolis Center
09:35PM 41.3267 -95.1200 231° Southwest 282 325 19,400 -2,459 Descending Minneapolis Center
09:36PM 41.3214 -95.1836 264° West 268 308 17,800 -2,951 Descending Minneapolis Center
09:36PM 41.2983 -95.2317 237° Southwest 270 311 16,400 -2,500 Descending Minneapolis Center
09:37PM 41.2964 -95.2728 266° West 262 302 15,300 -2,516 Descending Minneapolis Center
09:37PM 41.2753 -95.3214 240° Southwest 262 302 13,800 -2,509 Descending Minneapolis Center
09:37PM 41.2750 -95.3531 269° West 252 290 13,000 -1,935 Descending Minneapolis Center
09:38PM 41.2578 -95.3908 239° Southwest 253 291 11,800 -2,500 Descending Minneapolis Center
09:38PM 41.2517 -95.4392 260° West 248 285 10,500 -2,903 Descending Minneapolis Center
09:39PM 41.2303 -95.4944 243° Southwest 249 287 8,800 -2,459 Descending Minneapolis Center
09:39PM 41.2283 -95.5253 265° West 245 282 8,000 -2,459 Descending Minneapolis Center
09:40PM 41.2050 -95.5764 239° Southwest 245 282 6,300 -2,656 Descending Minneapolis Center
09:40PM 41.1958 -95.6014 244° Southwest 234 269 5,300 -2,129 Descending Minneapolis Center
09:41PM 41.1728 -95.6511 238° Southwest 238 274 4,100 -716 Descending Minneapolis Center
09:42PM 41.1533 -95.7225 250° West 225 259 4,000 -146 Descending Minneapolis Center
09:43PM 41.1806 -95.7767 304° West 198 228 3,800 -585 Descending Minneapolis Center
09:44PM 41.2203 -95.8117 326° Northwest 163 188 2,800 -767 Descending Minneapolis Center
09:46PM 41.2497 -95.8417 323° Northwest 107 123 2,100 -537 Descending Minneapolis Center
09:46PM 41.2686 -95.8583 326° Northwest 119 137 1,700 -526 Descending Minneapolis Center
09:47PM 41.2908 -95.8792 325° Northwest 108 124 1,100 -581 Descending Minneapolis Center
09:49PM 41.3000 -95.8833 323° Northwest  Level FlightAware Approximate
09:56PM 41.3032 -95.8941 323° Northwest  Level Estimated